Time;durP1;ratioP1;P1;durP2;ratioP2;P2;SDS_P1;SDS_P2;PMS_P1;PMS_P2;Temp;Humidity;BMP_temperature;BMP_pressure;BME280_temperature;BME280_humidity;BME280_pressure;Samples;Min_cycle;Max_cycle;Signal;HPM_P1;HPM_P2
2022/05/26 00:02:05;;;;;;;5.38;2.08;;;15.50;99.90;;;;;;4890796;29;20040;-59
2022/05/26 00:04:31;;;;;;;5.93;2.00;;;15.50;99.90;;;;;;4889470;29;20457;-58
2022/05/26 00:06:58;;;;;;;5.43;1.75;;;15.40;99.90;;;;;;4890591;29;20028;-59
2022/05/26 00:09:24;;;;;;;4.43;1.80;;;15.40;99.90;;;;;;4875327;29;20037;-58
2022/05/26 00:11:50;;;;;;;5.75;2.10;;;15.40;99.90;;;;;;4890963;29;20036;-59
2022/05/26 00:14:16;;;;;;;6.60;2.35;;;15.40;99.90;;;;;;4890750;29;20065;-58
2022/05/26 00:16:44;;;;;;;46.83;25.20;;;15.40;99.90;;;;;;4891787;29;20033;-58
2022/05/26 00:19:12;;;;;;;5.45;2.15;;;15.30;99.90;;;;;;4892402;29;20052;-58
2022/05/26 00:21:38;;;;;;;5.47;2.08;;;15.30;99.90;;;;;;4891925;29;20036;-59
2022/05/26 00:24:04;;;;;;;9.07;2.40;;;15.30;99.90;;;;;;4893274;29;20093;-59
2022/05/26 00:26:30;;;;;;;5.80;2.08;;;15.30;99.90;;;;;;4892534;29;20481;-59
2022/05/26 00:28:56;;;;;;;5.97;2.53;;;15.40;99.90;;;;;;4889535;29;20033;-58
2022/05/26 00:31:22;;;;;;;5.57;2.03;;;15.30;99.90;;;;;;4891340;29;20112;-59
2022/05/26 00:33:48;;;;;;;6.25;2.30;;;15.30;99.90;;;;;;4889870;29;20048;-59
2022/05/26 00:36:15;;;;;;;7.95;2.58;;;15.20;99.90;;;;;;4889896;29;20524;-58
2022/05/26 00:38:42;;;;;;;28.23;15.88;;;15.20;99.90;;;;;;4890825;29;20370;-59
2022/05/26 00:41:11;;;;;;;55.42;50.15;;;15.20;99.90;;;;;;4889914;29;20072;-58
2022/05/26 00:43:44;;;;;;;6.18;2.15;;;15.20;99.90;;;;;;4887297;29;20048;-58
2022/05/26 00:46:22;;;;;;;4.75;1.90;;;15.20;99.90;;;;;;4872200;29;20432;-59
2022/05/26 00:48:53;;;;;;;6.78;1.90;;;15.20;99.90;;;;;;4890689;29;20037;-59
2022/05/26 00:51:22;;;;;;;;;;;15.20;99.90;;;;;;4873520;29;20052;-59
2022/05/26 00:53:52;;;;;;;7.57;2.10;;;15.20;99.90;;;;;;4890608;29;19958;-58
2022/05/26 00:56:26;;;;;;;7.15;2.42;;;15.10;99.90;;;;;;4890021;29;20021;-59
2022/05/26 00:58:57;;;;;;;6.53;2.22;;;15.10;99.90;;;;;;4887798;29;20091;-59
2022/05/26 01:01:24;;;;;;;5.97;2.20;;;15.10;99.90;;;;;;4890338;29;20075;-58
2022/05/26 01:03:58;;;;;;;6.13;2.20;;;15.10;99.90;;;;;;4890931;29;20056;-59
2022/05/26 01:06:35;;;;;;;7.43;2.40;;;15.10;99.90;;;;;;4890976;29;20028;-59
2022/05/26 01:09:04;;;;;;;5.53;2.25;;;15.20;99.90;;;;;;4889799;29;20040;-58
2022/05/26 01:11:34;;;;;;;34.33;16.70;;;15.10;99.90;;;;;;4890327;29;20028;-59
2022/05/26 01:14:10;;;;;;;8.13;2.05;;;15.10;99.90;;;;;;4887840;29;20033;-59
2022/05/26 01:16:48;;;;;;;5.13;1.80;;;15.10;99.90;;;;;;4890543;29;20080;-59
2022/05/26 01:19:32;;;;;;;46.45;17.75;;;15.10;99.90;;;;;;4886585;29;20040;-59
2022/05/26 01:22:20;;;;;;;19.80;10.27;;;15.10;99.90;;;;;;4889050;29;20060;-58
2022/05/26 01:25:02;;;;;;;89.97;59.35;;;15.10;99.90;;;;;;4889305;29;20111;-58
2022/05/26 01:27:40;;;;;;;350.63;319.05;;;15.00;99.90;;;;;;4888141;29;20032;-59
2022/05/26 01:30:34;;;;;;;5.75;1.83;;;15.00;99.90;;;;;;4889667;29;20492;-58
2022/05/26 01:33:22;;;;;;;6.50;1.77;;;15.00;99.90;;;;;;4884587;29;20036;-59
2022/05/26 01:35:56;;;;;;;20.92;7.68;;;15.00;99.90;;;;;;4890430;29;20044;-59
2022/05/26 01:38:43;;;;;;;5.25;1.90;;;15.00;99.90;;;;;;4890083;29;20053;-58
2022/05/26 01:41:46;;;;;;;5.05;1.98;;;15.00;99.90;;;;;;4887129;29;20084;-59
2022/05/26 01:44:15;;;;;;;6.95;2.10;;;15.10;99.90;;;;;;4892024;29;20112;-58
2022/05/26 01:46:45;;;;;;;6.57;2.13;;;15.00;99.90;;;;;;4892724;29;20028;-59
2022/05/26 01:49:30;;;;;;;5.90;1.80;;;15.00;99.90;;;;;;4889865;29;20036;-59
2022/05/26 01:52:14;;;;;;;7.40;2.35;;;15.00;99.90;;;;;;4886303;29;20041;-59
2022/05/26 01:54:53;;;;;;;7.10;2.13;;;15.00;99.90;;;;;;4891424;29;20028;-59
2022/05/26 01:57:38;;;;;;;6.70;2.03;;;15.00;99.90;;;;;;4887015;29;20044;-59
2022/05/26 02:00:11;;;;;;;6.40;1.60;;;15.00;99.90;;;;;;4886560;29;20037;-58
2022/05/26 02:02:56;;;;;;;5.88;2.10;;;15.00;99.90;;;;;;4890012;29;20044;-58
2022/05/26 02:05:25;;;;;;;7.55;2.10;;;15.00;99.90;;;;;;4892500;29;20069;-59
2022/05/26 02:07:54;;;;;;;7.20;2.10;;;15.00;99.90;;;;;;4892681;29;20028;-59
2022/05/26 02:10:25;;;;;;;5.65;2.03;;;14.90;99.90;;;;;;4889612;29;20397;-58
2022/05/26 02:13:17;;;;;;;7.53;1.83;;;14.90;99.90;;;;;;4892880;29;20024;-59
2022/05/26 02:15:48;;;;;;;8.02;2.20;;;14.90;99.90;;;;;;4888678;29;20100;-58
2022/05/26 02:18:26;;;;;;;4.70;1.92;;;14.90;99.90;;;;;;4898857;29;20043;-58
2022/05/26 02:21:17;;;;;;;8.85;2.40;;;14.90;99.90;;;;;;4895215;29;20025;-58
2022/05/26 02:23:51;;;;;;;6.30;2.10;;;14.90;99.90;;;;;;4895265;29;20127;-59
2022/05/26 02:26:16;;;;;;;103.03;76.75;;;14.90;99.90;;;;;;4898672;29;20103;-60
2022/05/26 02:31:29;;;;;;;8.68;2.33;;;14.90;99.90;;;;;;4892209;29;20043;-59
2022/05/26 02:33:59;;;;;;;6.10;2.58;;;14.90;99.90;;;;;;4895727;29;20061;-58
2022/05/26 02:36:27;;;;;;;6.72;2.28;;;14.90;99.90;;;;;;4899765;29;20055;-59
2022/05/26 02:38:53;;;;;;;6.65;2.05;;;14.90;99.90;;;;;;4895400;29;20064;-59
2022/05/26 02:41:19;;;;;;;8.80;2.50;;;14.90;99.90;;;;;;4892485;29;20076;-58
2022/05/26 02:43:45;;;;;;;6.47;1.90;;;14.90;99.90;;;;;;4876843;29;20032;-58
2022/05/26 02:46:44;;;;;;;6.93;2.40;;;14.90;99.90;;;;;;4895440;29;20111;-59
2022/05/26 02:49:15;;;;;;;6.20;2.10;;;14.80;99.90;;;;;;4894836;29;20120;-59
2022/05/26 02:51:49;;;;;;;6.47;2.20;;;14.80;99.90;;;;;;4896465;29;20036;-59
2022/05/26 02:54:39;;;;;;;234.38;172.77;;;14.80;99.90;;;;;;4895580;29;20484;-58
2022/05/26 02:57:17;;;;;;;6.82;2.83;;;14.80;99.90;;;;;;4890548;29;20033;-58
2022/05/26 03:00:09;;;;;;;7.00;2.45;;;14.80;99.90;;;;;;4893536;29;20560;-59
2022/05/26 03:03:02;;;;;;;5.53;2.03;;;14.90;99.90;;;;;;4896797;29;20063;-59
2022/05/26 03:05:40;;;;;;;244.68;219.73;;;14.80;99.90;;;;;;4895912;29;20039;-59
2022/05/26 03:08:11;;;;;;;8.13;2.30;;;14.80;99.90;;;;;;4896504;29;20036;-59
2022/05/26 03:10:37;;;;;;;8.27;2.42;;;14.90;99.90;;;;;;4894599;29;20075;-59
2022/05/26 03:13:03;;;;;;;9.55;2.40;;;14.80;99.90;;;;;;4893174;29;20052;-58
2022/05/26 03:15:31;;;;;;;8.13;2.95;;;14.80;99.90;;;;;;4893883;29;20043;-58
2022/05/26 03:17:59;;;;;;;68.82;49.50;;;14.80;99.90;;;;;;4897897;29;20484;-58
2022/05/26 03:20:25;;;;;;;8.18;2.60;;;14.80;99.90;;;;;;4892136;29;20029;-58
2022/05/26 03:22:51;;;;;;;7.93;2.20;;;14.80;99.90;;;;;;4894108;29;20084;-58
2022/05/26 03:25:16;;;;;;;6.32;2.45;;;14.70;99.90;;;;;;4893551;29;20552;-58
2022/05/26 03:27:42;;;;;;;9.57;2.45;;;14.70;99.90;;;;;;4895093;29;20029;-58
2022/05/26 03:30:08;;;;;;;6.18;2.05;;;14.70;99.90;;;;;;4869206;29;20024;-59
2022/05/26 03:32:34;;;;;;;7.25;3.00;;;14.80;99.90;;;;;;4892040;29;20044;-59
2022/05/26 03:40:46;;;;;;;7.15;2.90;;;14.30;99.90;;;;;;4891824;29;20035;-58
2022/05/26 03:43:13;;;;;;;85.03;55.08;;;14.30;99.90;;;;;;4890334;29;20036;-58
2022/05/26 03:45:38;;;;;;;7.22;2.67;;;14.30;99.90;;;;;;4897375;29;20602;-58
2022/05/26 03:48:05;;;;;;;8.52;3.17;;;14.30;99.90;;;;;;4899022;29;20060;-58
2022/05/26 03:50:31;;;;;;;8.32;2.92;;;14.30;99.90;;;;;;4894601;29;20568;-58
2022/05/26 03:52:57;;;;;;;9.68;2.90;;;14.30;99.90;;;;;;4895226;29;20028;-57
2022/05/26 03:55:23;;;;;;;6.68;2.03;;;14.30;99.90;;;;;;4893851;29;20413;-58
2022/05/26 03:57:50;;;;;;;10.32;3.08;;;14.40;99.90;;;;;;4895095;29;20236;-59
2022/05/26 04:00:18;;;;;;;8.02;2.47;;;14.40;99.90;;;;;;4893187;29;20036;-58
2022/05/26 04:02:44;;;;;;;7.78;2.63;;;14.30;99.90;;;;;;4891311;29;20512;-57
2022/05/26 04:05:11;;;;;;;9.18;2.78;;;14.40;99.90;;;;;;4894136;29;20179;-58
2022/05/26 04:07:37;;;;;;;6.45;2.60;;;14.40;99.90;;;;;;4895280;29;20043;-58
2022/05/26 04:10:05;;;;;;;7.80;2.47;;;14.40;99.90;;;;;;4875078;29;20044;-59
2022/05/26 04:12:30;;;;;;;39.88;14.82;;;14.50;99.90;;;;;;4877430;29;20497;-58
2022/05/26 04:14:56;;;;;;;6.85;2.53;;;14.50;99.90;;;;;;4893932;29;20024;-58
2022/05/26 04:17:21;;;;;;;10.20;3.22;;;14.50;99.90;;;;;;4893883;29;20184;-57
2022/05/26 04:19:47;;;;;;;7.95;2.85;;;14.40;99.90;;;;;;4893601;29;20035;-58
2022/05/26 04:22:17;;;;;;;6.90;2.70;;;14.30;99.90;;;;;;4890177;29;20032;-58
2022/05/26 04:24:45;;;;;;;5.30;2.13;;;14.20;99.90;;;;;;4895725;29;20024;-58
2022/05/26 04:27:11;;;;;;;9.73;3.20;;;14.00;99.90;;;;;;4894446;29;20555;-59
2022/05/26 04:29:37;;;;;;;8.48;3.50;;;13.90;99.90;;;;;;4896395;29;20029;-58
2022/05/26 04:32:03;;;;;;;8.40;3.70;;;13.80;99.90;;;;;;4892517;29;20064;-59
2022/05/26 04:34:29;;;;;;;9.52;3.75;;;13.80;99.90;;;;;;4891702;29;20051;-58
2022/05/26 04:36:55;;;;;;;11.52;3.65;;;13.70;99.90;;;;;;4897909;29;20366;-58
2022/05/26 04:39:20;;;;;;;10.65;4.03;;;13.70;99.90;;;;;;4891170;29;20024;-58
2022/05/26 04:41:46;;;;;;;9.48;4.50;;;13.50;99.90;;;;;;4892973;29;20036;-57
2022/05/26 04:44:14;;;;;;;10.93;4.35;;;13.50;99.90;;;;;;4891759;29;20028;-58
2022/05/26 04:46:40;;;;;;;11.70;4.35;;;13.60;99.90;;;;;;4897610;29;20029;-58
2022/05/26 04:49:07;;;;;;;11.00;4.85;;;13.50;99.90;;;;;;4893866;29;20032;-57
2022/05/26 04:51:34;;;;;;;12.80;4.53;;;13.50;99.90;;;;;;4890948;29;20040;-57
2022/05/26 04:54:05;;;;;;;24.45;8.55;;;13.50;99.90;;;;;;4895218;29;20020;-58
2022/05/26 04:56:31;;;;;;;10.18;4.57;;;13.60;99.90;;;;;;4892081;29;20491;-58
2022/05/26 04:58:57;;;;;;;9.93;4.88;;;13.70;99.90;;;;;;4894277;29;20056;-58
2022/05/26 05:01:23;;;;;;;10.45;4.60;;;13.70;99.90;;;;;;4892065;29;20164;-58
2022/05/26 05:03:49;;;;;;;10.88;4.60;;;13.60;99.90;;;;;;4888628;29;20064;-58
2022/05/26 05:06:15;;;;;;;9.93;3.90;;;13.70;99.90;;;;;;4890901;29;20024;-59
2022/05/26 05:08:42;;;;;;;10.35;4.90;;;13.80;99.90;;;;;;4892756;29;20032;-58
2022/05/26 05:11:08;;;;;;;10.18;3.50;;;13.60;99.90;;;;;;4891678;29;20021;-57
2022/05/26 05:13:34;;;;;;;11.77;4.35;;;13.70;99.90;;;;;;4890493;29;20469;-58
2022/05/26 05:16:14;;;;;;;9.77;4.45;;;13.70;99.90;;;;;;4890861;29;20021;-57
2022/05/26 05:18:40;;;;;;;11.32;4.82;;;13.70;99.90;;;;;;4893427;29;20032;-58
2022/05/26 05:21:10;;;;;;;12.27;3.97;;;13.80;99.90;;;;;;4890353;29;20036;-58
2022/05/26 05:23:43;;;;;;;18.98;5.47;;;13.80;99.90;;;;;;4886974;29;20088;-58
2022/05/26 05:26:13;;;;;;;11.32;5.43;;;13.90;99.90;;;;;;4889911;29;20116;-58
2022/05/26 05:28:42;;;;;;;11.07;4.93;;;14.10;99.90;;;;;;4890882;29;20025;-58
2022/05/26 05:31:14;;;;;;;15.88;5.45;;;14.10;99.90;;;;;;4890326;29;20124;-58
2022/05/26 05:33:46;;;;;;;14.23;5.30;;;14.10;99.90;;;;;;4889028;29;20033;-58
2022/05/26 05:36:19;;;;;;;17.77;7.38;;;14.00;99.90;;;;;;4889630;29;20036;-58
2022/05/26 05:38:45;;;;;;;17.17;8.40;;;14.00;99.90;;;;;;4889950;29;20081;-57
2022/05/26 05:41:11;;;;;;;19.23;8.55;;;14.00;99.90;;;;;;4889963;29;20029;-57
2022/05/26 05:43:38;;;;;;;15.68;6.88;;;14.00;99.90;;;;;;4890346;29;20082;-58
2022/05/26 05:46:06;;;;;;;19.58;9.52;;;14.00;99.90;;;;;;4890794;29;20033;-58
2022/05/26 05:48:32;;;;;;;21.98;9.07;;;14.20;99.90;;;;;;4893782;29;20087;-58
2022/05/26 05:50:58;;;;;;;18.88;7.60;;;14.20;99.90;;;;;;4896457;29;20036;-56
2022/05/26 05:53:23;;;;;;;22.20;9.27;;;14.20;99.90;;;;;;4893463;29;20024;-56
2022/05/26 05:55:49;;;;;;;21.60;8.38;;;14.40;99.90;;;;;;4887029;29;20028;-56
2022/05/26 05:58:14;;;;;;;22.63;10.35;;;14.30;99.90;;;;;;4894930;29;20032;-57
2022/05/26 06:00:41;;;;;;;21.25;8.65;;;14.40;99.90;;;;;;4894252;29;20030;-57
2022/05/26 06:03:08;;;;;;;18.92;9.05;;;14.40;99.90;;;;;;4897485;29;20068;-57
2022/05/26 06:05:34;;;;;;;24.33;8.93;;;14.60;99.90;;;;;;4893878;29;20041;-56
2022/05/26 06:08:00;;;;;;;19.90;8.50;;;14.70;99.90;;;;;;4878184;29;20103;-57
2022/05/26 06:10:27;;;;;;;21.98;10.38;;;14.80;99.90;;;;;;4894415;29;20492;-56
2022/05/26 06:12:52;;;;;;;20.42;9.43;;;14.90;99.90;;;;;;4897804;29;20108;-57
2022/05/26 06:15:18;;;;;;;26.38;10.65;;;15.00;99.90;;;;;;4893880;29;20044;-57
2022/05/26 06:17:44;;;;;;;18.45;7.80;;;15.00;99.90;;;;;;4900203;29;20044;-57
2022/05/26 06:20:11;;;;;;;28.65;7.75;;;15.00;99.90;;;;;;4896867;29;20043;-56
2022/05/26 06:22:40;;;;;;;22.33;10.20;;;15.00;99.90;;;;;;4871437;29;20032;-57
2022/05/26 06:25:06;;;;;;;21.35;10.27;;;14.90;99.90;;;;;;4895580;29;20037;-57
2022/05/26 06:30:18;;;;;;;24.10;8.15;;;15.00;99.90;;;;;;4897604;29;20140;-57
2022/05/26 06:38:26;;;;;;;24.13;9.98;;;14.70;99.90;;;;;;4900632;29;20519;-56
2022/05/26 06:40:52;;;;;;;23.88;9.88;;;14.80;99.90;;;;;;4897292;29;20025;-57
2022/05/26 06:43:18;;;;;;;22.33;9.50;;;14.80;99.90;;;;;;4893729;29;20485;-57
2022/05/26 06:45:46;;;;;;;24.20;10.40;;;14.90;99.90;;;;;;4896108;29;20033;-56
2022/05/26 06:48:13;;;;;;;23.17;9.95;;;15.00;99.90;;;;;;4894637;29;20044;-56
2022/05/26 06:50:39;;;;;;;24.30;10.20;;;15.00;99.90;;;;;;4897226;29;20072;-57
2022/05/26 06:53:05;;;;;;;21.80;9.38;;;15.20;99.90;;;;;;4878784;29;20088;-57
2022/05/26 06:55:31;;;;;;;21.20;9.75;;;15.30;99.90;;;;;;4893989;29;20040;-57
2022/05/26 06:57:57;;;;;;;25.15;10.18;;;15.20;99.90;;;;;;4897155;29;20088;-57
2022/05/26 07:00:23;;;;;;;23.98;9.63;;;15.30;99.90;;;;;;4893051;29;20543;-58
2022/05/26 07:02:50;;;;;;;27.65;11.13;;;15.50;99.90;;;;;;4894545;29;20412;-57
2022/05/26 07:05:16;;;;;;;22.95;11.13;;;15.60;99.90;;;;;;4892281;29;20039;-57
2022/05/26 07:07:42;;;;;;;17.58;8.20;;;15.60;99.90;;;;;;4892935;29;20146;-56
2022/05/26 07:10:12;;;;;;;22.67;10.45;;;15.60;99.90;;;;;;4879027;29;20405;-57
2022/05/26 07:12:37;;;;;;;21.52;10.60;;;15.60;99.90;;;;;;4894333;29;20032;-57
2022/05/26 07:15:03;;;;;;;22.77;9.80;;;15.60;99.90;;;;;;4892937;29;20032;-57
2022/05/26 07:17:29;;;;;;;19.63;9.00;;;15.70;99.90;;;;;;4895092;29;20075;-57
2022/05/26 07:19:55;;;;;;;22.75;10.10;;;15.60;99.90;;;;;;4893695;29;20072;-57
2022/05/26 07:22:21;;;;;;;23.58;9.35;;;15.50;99.90;;;;;;4891798;29;20043;-57
2022/05/26 07:24:49;;;;;;;23.70;10.35;;;15.70;99.90;;;;;;4892491;29;20040;-57
2022/05/26 07:27:15;;;;;;;25.92;10.45;;;15.70;99.90;;;;;;4892009;29;20033;-57
2022/05/26 07:29:41;;;;;;;22.85;11.50;;;15.90;99.90;;;;;;4892860;29;20461;-57
2022/05/26 07:32:07;;;;;;;21.60;10.15;;;15.90;99.90;;;;;;4892556;29;20052;-57
2022/05/26 07:34:32;;;;;;;25.10;10.98;;;16.10;99.90;;;;;;4890048;29;20028;-57
2022/05/26 07:42:31;;;;;;;28.15;10.27;;;16.20;99.90;;;;;;4891707;29;20057;-57
2022/05/26 07:44:58;;;;;;;23.73;11.07;;;16.10;99.90;;;;;;4892325;29;20092;-57
2022/05/26 07:47:26;;;;;;;23.70;10.98;;;16.00;99.90;;;;;;4889780;29;20036;-57
2022/05/26 07:49:52;;;;;;;21.33;9.38;;;16.30;99.90;;;;;;4894615;29;20374;-56
2022/05/26 07:52:18;;;;;;;22.33;10.07;;;16.70;99.90;;;;;;4893571;29;20028;-57
2022/05/26 07:54:44;;;;;;;23.70;11.80;;;16.90;99.90;;;;;;4892802;29;20116;-57
2022/05/26 07:57:23;;;;;;;18.98;9.85;;;16.90;99.90;;;;;;4891924;29;20069;-57
2022/05/26 07:59:50;;;;;;;20.58;10.07;;;16.90;99.90;;;;;;4890252;29;20032;-57
2022/05/26 08:02:16;;;;;;;14.95;8.00;;;17.30;99.90;;;;;;4891724;29;20135;-57
2022/05/26 08:04:41;;;;;;;19.25;7.95;;;17.70;99.90;;;;;;4890267;29;20123;-57
2022/05/26 08:07:07;;;;;;;25.80;10.52;;;17.30;99.90;;;;;;4891358;29;20458;-57
2022/05/26 08:09:33;;;;;;;22.63;8.23;;;17.50;99.90;;;;;;4891054;29;20028;-57
2022/05/26 08:11:58;;;;;;;17.50;8.32;;;17.50;99.90;;;;;;4890706;29;20021;-57
2022/05/26 08:14:25;;;;;;;21.48;9.65;;;17.50;99.90;;;;;;4891071;29;20039;-57
2022/05/26 08:16:51;;;;;;;22.85;9.65;;;17.80;99.90;;;;;;4891816;29;20025;-57
2022/05/26 08:19:17;;;;;;;18.95;9.20;;;18.30;99.90;;;;;;4891694;29;20088;-57
2022/05/26 08:21:43;;;;;;;14.77;6.40;;;18.30;99.90;;;;;;4891616;29;20374;-57
2022/05/26 08:24:08;;;;;;;18.83;8.05;;;18.10;99.90;;;;;;4891198;29;20036;-57
2022/05/26 08:26:34;;;;;;;17.15;6.78;;;18.80;99.90;;;;;;4890818;29;20036;-57
2022/05/26 08:29:00;;;;;;;17.00;7.72;;;18.60;99.90;;;;;;4892036;29;20124;-57
2022/05/26 08:31:26;;;;;;;17.98;7.72;;;18.40;99.90;;;;;;4893329;29;20048;-57
2022/05/26 08:33:52;;;;;;;15.90;8.00;;;18.40;99.90;;;;;;4891443;29;20040;-56
2022/05/26 08:36:28;;;;;;;18.30;8.73;;;18.30;99.90;;;;;;4891118;29;20449;-56
2022/05/26 08:38:55;;;;;;;15.63;8.07;;;18.00;99.90;;;;;;4891038;29;20104;-57
2022/05/26 08:41:33;;;;;;;18.40;8.70;;;18.30;99.90;;;;;;4891732;29;20029;-57
2022/05/26 08:44:10;;;;;;;21.15;8.30;;;18.50;99.90;;;;;;4889425;29;20099;-57
2022/05/26 08:46:45;;;;;;;20.63;8.43;;;18.50;99.90;;;;;;4890935;29;20029;-57
2022/05/26 08:49:29;;;;;;;15.32;8.18;;;18.00;99.90;;;;;;4890802;29;20039;-57
2022/05/26 08:52:06;;;;;;;16.10;7.43;;;18.00;99.90;;;;;;4890938;29;20445;-57
2022/05/26 08:54:44;;;;;;;20.83;10.10;;;18.20;99.90;;;;;;4890497;29;20036;-57
2022/05/26 08:57:14;;;;;;;19.55;9.55;;;18.00;99.90;;;;;;4887137;29;20032;-57
2022/05/26 08:59:41;;;;;;;;;;;18.00;99.90;;;;;;4891501;29;20044;-57
2022/05/26 09:02:24;;;;;;;14.77;6.97;;;17.30;99.90;;;;;;4891111;29;19911;-57
2022/05/26 09:04:50;;;;;;;18.17;9.20;;;17.10;99.90;;;;;;4888939;29;20044;-57
2022/05/26 09:12:59;;;;;;;12.98;5.60;;;17.10;99.90;;;;;;4896587;29;20582;-57
2022/05/26 09:15:27;;;;;;;16.85;7.20;;;17.20;99.90;;;;;;4891900;29;20516;-57
2022/05/26 09:17:52;;;;;;;17.75;6.75;;;18.30;99.90;;;;;;4896905;29;20103;-56
2022/05/26 09:20:36;;;;;;;15.95;6.90;;;18.80;99.90;;;;;;4893540;29;20108;-57
2022/05/26 09:23:23;;;;;;;16.13;6.40;;;18.60;99.90;;;;;;4894992;29;20028;-57
2022/05/26 09:25:55;;;;;;;12.95;5.60;;;18.10;99.90;;;;;;4895165;29;20041;-57
2022/05/26 09:28:51;;;;;;;11.27;5.47;;;18.10;99.90;;;;;;4897041;29;20079;-56
2022/05/26 09:31:29;;;;;;;12.20;5.45;;;17.90;99.90;;;;;;4898662;29;20047;-56
2022/05/26 09:34:07;;;;;;;13.35;6.25;;;18.50;99.90;;;;;;4896051;29;20040;-57
2022/05/26 09:36:52;;;;;;;16.30;5.85;;;19.80;99.90;;;;;;4894588;29;20495;-56
2022/05/26 09:39:45;;;;;;;10.80;5.22;;;20.10;99.90;;;;;;4894629;29;20036;-56
2022/05/26 09:42:17;;;;;;;9.98;4.10;;;20.00;99.90;;;;;;4891979;29;20043;-57
2022/05/26 09:44:59;;;;;;;15.38;5.20;;;20.20;99.90;;;;;;4892005;29;20036;-59
2022/05/26 09:47:31;;;;;;;12.38;5.13;;;21.40;99.90;;;;;;4896066;29;20048;-57
2022/05/26 09:49:59;;;;;;;10.07;3.65;;;21.10;99.90;;;;;;4895921;29;20060;-57
2022/05/26 09:52:29;;;;;;;14.23;4.82;;;20.80;99.90;;;;;;4900998;29;20035;-56
2022/05/26 09:55:19;;;;;;;14.45;5.05;;;20.00;99.90;;;;;;4899558;29;20016;-57
2022/05/26 09:57:45;;;;;;;16.15;5.78;;;20.60;99.90;;;;;;4895993;29;20092;-57
2022/05/26 10:00:31;;;;;;;11.80;4.85;;;20.20;99.90;;;;;;4894939;29;20092;-57
2022/05/26 10:02:59;;;;;;;11.63;4.22;;;20.20;99.90;;;;;;4896102;29;20914;-57
2022/05/26 10:05:47;;;;;;;12.55;5.00;;;20.80;99.90;;;;;;4894277;29;20590;-57
2022/05/26 10:08:31;;;;;;;10.88;4.32;;;20.00;99.90;;;;;;4893967;29;20047;-57
2022/05/26 10:11:05;;;;;;;11.80;4.60;;;20.30;99.90;;;;;;4897885;29;20025;-57
2022/05/26 10:13:54;;;;;;;11.48;4.00;;;20.40;99.90;;;;;;4894949;29;20025;-58
2022/05/26 10:16:46;;;;;;;12.10;4.28;;;20.20;99.90;;;;;;4894646;29;20441;-57
2022/05/26 10:19:34;;;;;;;11.35;4.57;;;20.10;99.90;;;;;;4896458;29;20032;-57
2022/05/26 10:22:19;;;;;;;8.82;4.25;;;19.70;99.90;;;;;;4895734;29;20507;-57
2022/05/26 10:24:59;;;;;;;11.52;4.80;;;20.40;99.90;;;;;;4895717;29;20039;-57
2022/05/26 10:27:43;;;;;;;10.38;4.30;;;;;;;;;;4892866;29;20515;-57
2022/05/26 10:30:38;;;;;;;8.23;3.08;;;22.20;99.90;;;;;;4895143;29;20487;-57
2022/05/26 10:33:14;;;;;;;11.13;3.55;;;21.90;99.00;;;;;;4896260;29;20481;-57
2022/05/26 10:35:51;;;;;;;9.43;2.97;;;20.80;99.90;;;;;;4897077;29;20039;-57
2022/05/26 10:38:55;;;;;;;9.55;4.20;;;19.70;99.90;;;;;;4892220;29;20041;-56
2022/05/26 10:41:48;;;;;;;8.82;2.45;;;19.50;99.90;;;;;;4835909;29;20458;-56
2022/05/26 10:44:20;;;;;;;11.80;3.70;;;19.10;99.90;;;;;;4891446;29;20541;-57
2022/05/26 10:47:08;;;;;;;9.43;3.70;;;19.90;99.90;;;;;;4893285;29;20095;-57
2022/05/26 10:49:43;;;;;;;8.13;3.38;;;22.00;99.90;;;;;;4892356;29;20075;-57
2022/05/26 10:52:19;;;;;;;9.10;2.50;;;22.40;99.00;;;;;;4893654;29;20037;-57
2022/05/26 10:55:04;;;;;;;8.27;2.78;;;21.20;98.30;;;;;;4894514;29;20084;-57
2022/05/26 10:58:18;;;;;;;11.95;3.33;;;20.50;99.90;;;;;;4894428;29;20094;-57
2022/05/26 11:00:50;;;;;;;9.68;3.58;;;20.20;99.90;;;;;;4874051;29;20100;-57
2022/05/26 11:03:31;;;;;;;9.25;3.70;;;19.70;99.90;;;;;;4892331;29;20131;-57
2022/05/26 11:06:09;;;;;;;7.72;3.17;;;19.70;99.90;;;;;;4895187;29;20028;-58
2022/05/26 11:08:44;;;;;;;9.90;4.03;;;19.70;99.90;;;;;;4894939;29;20689;-57
2022/05/26 11:11:40;;;;;;;9.15;2.80;;;20.00;99.90;;;;;;4894998;29;20020;-57
2022/05/26 11:17:21;;;;;;;10.57;3.13;;;20.30;99.90;;;;;;4897315;29;20083;-57
2022/05/26 11:17:22;;;;;;;9.60;3.22;;;21.40;99.60;;;;;;4896808;29;20032;-57
2022/05/26 11:20:03;;;;;;;9.65;3.13;;;23.00;97.00;;;;;;4894073;29;20032;-57
2022/05/26 11:22:28;;;;;;;8.60;3.28;;;23.60;95.90;;;;;;4890376;29;20111;-58
2022/05/26 11:24:57;;;;;;;8.57;3.10;;;23.10;95.00;;;;;;4896970;29;20119;-57
2022/05/26 11:27:43;;;;;;;9.55;3.15;;;23.00;96.60;;;;;;4876259;29;20038;-58
2022/05/26 11:36:19;;;;;;;7.65;2.75;;;21.10;98.50;;;;;;4890284;29;20088;-57
2022/05/26 11:38:48;;;;;;;11.52;3.40;;;20.20;98.70;;;;;;4894939;29;20036;-57
2022/05/26 11:41:25;;;;;;;9.10;2.90;;;19.70;99.20;;;;;;4894275;29;20060;-58
2022/05/26 11:44:00;;;;;;;9.45;3.20;;;19.70;99.50;;;;;;4867481;29;20028;-58
2022/05/26 11:46:52;;;;;;;7.75;2.80;;;20.10;99.40;;;;;;4894967;29;20043;-57
2022/05/26 11:49:43;;;;;;;9.13;3.03;;;20.00;98.70;;;;;;4895322;29;20718;-57
2022/05/26 11:52:26;;;;;;;8.15;2.80;;;20.10;99.80;;;;;;4893077;29;20052;-57
2022/05/26 11:55:03;;;;;;;9.77;2.95;;;19.80;99.90;;;;;;4895867;29;20060;-57
2022/05/26 11:57:54;;;;;;;9.00;2.42;;;19.80;99.70;;;;;;4894608;29;20035;-57
2022/05/26 12:00:19;;;;;;;;;;;21.80;96.10;;;;;;4892874;29;20083;-57
2022/05/26 12:03:12;;;;;;;10.93;2.85;;;21.70;95.70;;;;;;4890053;29;19923;-56
2022/05/26 12:05:37;;;;;;;17.58;12.48;;;21.10;96.10;;;;;;4887709;29;20509;-58
2022/05/26 12:08:21;;;;;;;11.63;3.10;;;20.80;97.60;;;;;;4891328;29;20088;-57
2022/05/26 12:10:59;;;;;;;8.23;2.90;;;20.30;98.70;;;;;;4889171;29;20516;-57
2022/05/26 12:13:27;;;;;;;8.60;3.00;;;20.10;99.10;;;;;;4891534;29;20028;-57
2022/05/26 12:16:03;;;;;;;9.00;2.85;;;20.20;99.30;;;;;;4890687;29;20036;-57
2022/05/26 12:19:06;;;;;;;8.55;2.92;;;20.20;99.20;;;;;;4874309;29;20020;-57
2022/05/26 12:21:42;;;;;;;8.40;2.70;;;20.40;99.20;;;;;;4874259;29;20071;-57
2022/05/26 12:24:32;;;;;;;8.20;2.70;;;21.20;98.60;;;;;;4888363;29;20032;-57
2022/05/26 12:27:00;;;;;;;8.75;3.13;;;21.20;96.30;;;;;;4888100;29;20029;-57
2022/05/26 12:29:44;;;;;;;10.07;2.88;;;21.20;97.30;;;;;;4890967;29;20055;-56
2022/05/26 12:32:19;;;;;;;10.05;3.10;;;22.20;95.50;;;;;;4887913;29;20024;-57
2022/05/26 12:35:27;;;;;;;11.50;3.35;;;22.40;95.20;;;;;;4874071;29;20246;-57
2022/05/26 12:38:10;;;;;;;7.78;2.78;;;22.30;95.40;;;;;;4889271;29;20037;-58
2022/05/26 12:41:00;;;;;;;7.95;2.50;;;21.80;95.50;;;;;;4890486;29;20040;-57
2022/05/26 12:43:26;;;;;;;13.15;3.13;;;22.00;95.40;;;;;;4891442;29;20036;-56
2022/05/26 12:45:56;;;;;;;6.90;2.42;;;22.80;93.60;;;;;;4890774;29;20074;-57
2022/05/26 12:49:19;;;;;;;8.40;3.35;;;22.90;93.50;;;;;;4890769;29;20139;-58
2022/05/26 12:51:44;;;;;;;8.65;3.00;;;22.10;94.70;;;;;;4824938;29;20042;-57
2022/05/26 12:54:18;;;;;;;9.35;2.97;;;21.90;94.00;;;;;;4829504;29;20096;-57
2022/05/26 12:56:51;;;;;;;9.77;3.58;;;21.90;94.70;;;;;;4858813;29;20044;-57
2022/05/26 12:59:22;;;;;;;8.80;2.80;;;22.50;94.30;;;;;;4888642;29;20056;-58
2022/05/26 13:01:48;;;;;;;7.80;2.88;;;22.70;93.70;;;;;;4889957;29;20028;-57
2022/05/26 13:04:24;;;;;;;9.27;3.00;;;22.40;93.70;;;;;;4893025;29;20250;-57
2022/05/26 13:06:52;;;;;;;9.90;2.90;;;23.40;92.50;;;;;;4888602;29;20028;-57
2022/05/26 13:09:24;;;;;;;7.93;3.13;;;24.40;91.50;;;;;;4894301;29;20425;-57
2022/05/26 13:12:01;;;;;;;8.98;2.60;;;23.80;90.50;;;;;;4892620;29;20039;-57
2022/05/26 13:14:56;;;;;;;8.68;2.90;;;23.70;90.60;;;;;;4889259;29;20104;-57
2022/05/26 13:17:25;;;;;;;8.23;2.70;;;23.90;90.40;;;;;;4894356;29;20038;-57
2022/05/26 13:19:54;;;;;;;9.43;2.88;;;24.30;91.00;;;;;;4894739;29;20035;-58
2022/05/26 13:22:31;;;;;;;8.25;2.83;;;23.20;91.30;;;;;;4890947;29;20175;-57
2022/05/26 13:25:15;;;;;;;8.43;2.63;;;22.80;92.10;;;;;;4893048;29;20028;-57
2022/05/26 13:27:50;;;;;;;7.80;2.70;;;22.60;92.20;;;;;;4888357;29;20048;-57
2022/05/26 13:33:07;;;;;;;8.10;3.05;;;23.00;91.80;;;;;;4889565;29;20064;-57
2022/05/26 13:35:37;;;;;;;;;;;23.50;91.40;;;;;;4892515;29;20037;-57
2022/05/26 13:38:03;;;;;;;6.88;2.22;;;22.80;91.80;;;;;;4893706;29;19923;-57
2022/05/26 13:40:29;;;;;;;7.25;2.90;;;22.30;92.50;;;;;;4894303;29;20032;-57
2022/05/26 13:42:55;;;;;;;8.45;2.63;;;22.20;93.00;;;;;;4889527;29;20612;-57
2022/05/26 13:45:28;;;;;;;6.28;2.20;;;22.00;93.90;;;;;;4890400;29;20080;-57
2022/05/26 13:48:21;;;;;;;9.40;2.70;;;21.70;93.90;;;;;;4889884;29;20603;-57